sensor_id;sensor_type;location;lat;lon;timestamp;pressure;altitude;pressure_sealevel;temperature;humidity
30618;BME280;17384;51.214;9.202;2023-08-06T00:01:11;97819.22;;;13.32;100.00
30618;BME280;17384;51.214;9.202;2023-08-06T00:03:37;97823.22;;;13.25;100.00
30618;BME280;17384;51.214;9.202;2023-08-06T00:06:04;97819.97;;;13.28;100.00
30618;BME280;17384;51.214;9.202;2023-08-06T00:08:30;97818.69;;;13.35;100.00
30618;BME280;17384;51.214;9.202;2023-08-06T00:10:56;97811.28;;;13.31;100.00
30618;BME280;17384;51.214;9.202;2023-08-06T00:13:21;97806.25;;;13.44;100.00
30618;BME280;17384;51.214;9.202;2023-08-06T00:15:46;97809.13;;;13.33;100.00
30618;BME280;17384;51.214;9.202;2023-08-06T00:18:12;97805.28;;;13.29;100.00
30618;BME280;17384;51.214;9.202;2023-08-06T00:20:40;97801.03;;;13.43;100.00
30618;BME280;17384;51.214;9.202;2023-08-06T00:23:09;97798.88;;;13.45;100.00
30618;BME280;17384;51.214;9.202;2023-08-06T00:25:34;97798.00;;;13.34;100.00
30618;BME280;17384;51.214;9.202;2023-08-06T00:27:59;97789.03;;;13.39;100.00
30618;BME280;17384;51.214;9.202;2023-08-06T00:30:25;97787.91;;;13.35;100.00
30618;BME280;17384;51.214;9.202;2023-08-06T00:32:50;97796.22;;;13.50;100.00
30618;BME280;17384;51.214;9.202;2023-08-06T00:35:16;97796.31;;;13.60;100.00
30618;BME280;17384;51.214;9.202;2023-08-06T00:37:41;97795.69;;;13.53;100.00
30618;BME280;17384;51.214;9.202;2023-08-06T00:40:07;97777.97;;;13.50;100.00
30618;BME280;17384;51.214;9.202;2023-08-06T00:42:33;97769.28;;;13.53;100.00
30618;BME280;17384;51.214;9.202;2023-08-06T00:45:00;97781.66;;;13.71;100.00
30618;BME280;17384;51.214;9.202;2023-08-06T00:47:26;97785.22;;;13.72;100.00
30618;BME280;17384;51.214;9.202;2023-08-06T00:49:51;97779.75;;;13.72;100.00
30618;BME280;17384;51.214;9.202;2023-08-06T00:52:17;97767.16;;;13.61;100.00
30618;BME280;17384;51.214;9.202;2023-08-06T00:54:43;97758.41;;;13.59;100.00
30618;BME280;17384;51.214;9.202;2023-08-06T00:57:09;97755.94;;;13.57;100.00
30618;BME280;17384;51.214;9.202;2023-08-06T00:59:34;97752.63;;;13.50;100.00
30618;BME280;17384;51.214;9.202;2023-08-06T01:02:00;97737.91;;;13.51;100.00
30618;BME280;17384;51.214;9.202;2023-08-06T01:04:25;97745.81;;;13.52;100.00
30618;BME280;17384;51.214;9.202;2023-08-06T01:07:08;97746.94;;;13.57;100.00
30618;BME280;17384;51.214;9.202;2023-08-06T01:09:59;97747.69;;;13.84;100.00
30618;BME280;17384;51.214;9.202;2023-08-06T01:15:29;97746.97;;;13.94;100.00
30618;BME280;17384;51.214;9.202;2023-08-06T01:17:55;97749.13;;;13.97;100.00
30618;BME280;17384;51.214;9.202;2023-08-06T01:20:21;97744.22;;;13.94;100.00
30618;BME280;17384;51.214;9.202;2023-08-06T01:22:46;97746.88;;;13.83;100.00
30618;BME280;17384;51.214;9.202;2023-08-06T01:25:15;97746.50;;;13.70;100.00
30618;BME280;17384;51.214;9.202;2023-08-06T01:27:48;97742.94;;;13.64;100.00
30618;BME280;17384;51.214;9.202;2023-08-06T01:30:25;97743.38;;;13.51;100.00
30618;BME280;17384;51.214;9.202;2023-08-06T01:32:59;97737.91;;;13.51;100.00
30618;BME280;17384;51.214;9.202;2023-08-06T01:35:26;97744.09;;;13.41;100.00
30618;BME280;17384;51.214;9.202;2023-08-06T01:37:52;97742.75;;;13.44;100.00
30618;BME280;17384;51.214;9.202;2023-08-06T01:40:18;97742.75;;;13.44;100.00
30618;BME280;17384;51.214;9.202;2023-08-06T01:42:43;97734.06;;;13.47;100.00
30618;BME280;17384;51.214;9.202;2023-08-06T01:45:09;97737.34;;;13.49;100.00
30618;BME280;17384;51.214;9.202;2023-08-06T01:47:35;97735.66;;;13.43;100.00
30618;BME280;17384;51.214;9.202;2023-08-06T01:50:01;97737.41;;;13.54;100.00
30618;BME280;17384;51.214;9.202;2023-08-06T01:52:27;97746.19;;;13.61;100.00
30618;BME280;17384;51.214;9.202;2023-08-06T01:54:53;97734.72;;;13.59;100.00
30618;BME280;17384;51.214;9.202;2023-08-06T01:57:19;97739.94;;;13.66;100.00
30618;BME280;17384;51.214;9.202;2023-08-06T01:59:44;97719.03;;;13.39;100.00
30618;BME280;17384;51.214;9.202;2023-08-06T02:02:09;97724.44;;;13.34;100.00
30618;BME280;17384;51.214;9.202;2023-08-06T02:04:35;97713.69;;;13.23;100.00
30618;BME280;17384;51.214;9.202;2023-08-06T02:07:00;97711.22;;;13.21;100.00
30618;BME280;17384;51.214;9.202;2023-08-06T02:09:26;97706.19;;;13.08;100.00
30618;BME280;17384;51.214;9.202;2023-08-06T02:11:51;97700.75;;;13.08;100.00
30618;BME280;17384;51.214;9.202;2023-08-06T02:14:17;97696.84;;;12.99;100.00
30618;BME280;17384;51.214;9.202;2023-08-06T02:16:42;97680.47;;;12.94;100.00
30618;BME280;17384;51.214;9.202;2023-08-06T02:19:07;97688.56;;;12.88;100.00
30618;BME280;17384;51.214;9.202;2023-08-06T02:21:33;97688.41;;;13.00;100.00
30618;BME280;17384;51.214;9.202;2023-08-06T02:23:58;97689.56;;;13.04;100.00
30618;BME280;17384;51.214;9.202;2023-08-06T02:26:24;97692.59;;;13.08;100.00
30618;BME280;17384;51.214;9.202;2023-08-06T02:28:49;97693.91;;;13.05;100.00
30618;BME280;17384;51.214;9.202;2023-08-06T02:31:15;97690.38;;;13.05;100.00
30618;BME280;17384;51.214;9.202;2023-08-06T02:33:40;97687.41;;;13.06;100.00
30618;BME280;17384;51.214;9.202;2023-08-06T02:36:06;97682.16;;;13.00;100.00
30618;BME280;17384;51.214;9.202;2023-08-06T02:38:32;97677.53;;;13.00;100.00
30618;BME280;17384;51.214;9.202;2023-08-06T02:40:57;97673.16;;;12.99;100.00
30618;BME280;17384;51.214;9.202;2023-08-06T02:43:23;97673.72;;;13.01;100.00
30618;BME280;17384;51.214;9.202;2023-08-06T02:45:48;97669.81;;;12.92;100.00
30618;BME280;17384;51.214;9.202;2023-08-06T02:48:14;97662.16;;;12.84;100.00
30618;BME280;17384;51.214;9.202;2023-08-06T02:50:42;97653.97;;;12.84;100.00
30618;BME280;17384;51.214;9.202;2023-08-06T02:53:08;97651.91;;;12.96;100.00
30618;BME280;17384;51.214;9.202;2023-08-06T02:55:34;97647.38;;;13.07;100.00
30618;BME280;17384;51.214;9.202;2023-08-06T02:58:03;97651.00;;;13.17;100.00
30618;BME280;17384;51.214;9.202;2023-08-06T03:00:28;97656.50;;;13.23;100.00
30618;BME280;17384;51.214;9.202;2023-08-06T03:02:54;97640.16;;;13.23;100.00
30618;BME280;17384;51.214;9.202;2023-08-06T03:05:20;97629.22;;;13.17;100.00
30618;BME280;17384;51.214;9.202;2023-08-06T03:07:46;97634.34;;;13.14;100.00
30618;BME280;17384;51.214;9.202;2023-08-06T03:10:12;97618.25;;;13.07;100.00
30618;BME280;17384;51.214;9.202;2023-08-06T03:12:38;97627.53;;;13.11;100.00
30618;BME280;17384;51.214;9.202;2023-08-06T03:15:04;97618.91;;;13.19;100.00
30618;BME280;17384;51.214;9.202;2023-08-06T03:17:30;97623.72;;;13.12;100.00
30618;BME280;17384;51.214;9.202;2023-08-06T03:19:55;97621.31;;;13.16;100.00
30618;BME280;17384;51.214;9.202;2023-08-06T03:22:21;97610.25;;;13.28;100.00
30618;BME280;17384;51.214;9.202;2023-08-06T03:24:50;97612.06;;;13.17;100.00
30618;BME280;17384;51.214;9.202;2023-08-06T03:27:16;97601.84;;;13.02;100.00
30618;BME280;17384;51.214;9.202;2023-08-06T03:29:42;97605.56;;;12.91;100.00
30618;BME280;17384;51.214;9.202;2023-08-06T03:32:07;97609.88;;;12.82;100.00
30618;BME280;17384;51.214;9.202;2023-08-06T03:34:33;97611.50;;;12.83;100.00
30618;BME280;17384;51.214;9.202;2023-08-06T03:36:58;97603.81;;;12.75;100.00
30618;BME280;17384;51.214;9.202;2023-08-06T03:39:24;97608.22;;;12.81;100.00
30618;BME280;17384;51.214;9.202;2023-08-06T03:41:49;97606.28;;;12.76;100.00
30618;BME280;17384;51.214;9.202;2023-08-06T03:44:15;97606.59;;;12.80;100.00
30618;BME280;17384;51.214;9.202;2023-08-06T03:46:40;97617.78;;;12.83;100.00
30618;BME280;17384;51.214;9.202;2023-08-06T03:49:06;97595.44;;;12.81;100.00
30618;BME280;17384;51.214;9.202;2023-08-06T03:51:31;97593.53;;;12.82;100.00
30618;BME280;17384;51.214;9.202;2023-08-06T03:53:57;97605.00;;;12.89;100.00
30618;BME280;17384;51.214;9.202;2023-08-06T03:56:22;97595.56;;;12.97;100.00
30618;BME280;17384;51.214;9.202;2023-08-06T03:58:48;97607.16;;;12.87;100.00
30618;BME280;17384;51.214;9.202;2023-08-06T04:01:14;97602.53;;;12.87;100.00
30618;BME280;17384;51.214;9.202;2023-08-06T04:03:39;97606.59;;;12.80;100.00
30618;BME280;17384;51.214;9.202;2023-08-06T04:06:07;97611.50;;;12.83;100.00
30618;BME280;17384;51.214;9.202;2023-08-06T04:08:32;97610.19;;;12.85;100.00
30618;BME280;17384;51.214;9.202;2023-08-06T04:10:58;97602.28;;;12.89;100.00
30618;BME280;17384;51.214;9.202;2023-08-06T04:13:23;97602.13;;;13.01;100.00
30618;BME280;17384;51.214;9.202;2023-08-06T04:15:49;97601.38;;;13.10;100.00
30618;BME280;17384;51.214;9.202;2023-08-06T04:18:15;97593.69;;;13.02;100.00
30618;BME280;17384;51.214;9.202;2023-08-06T04:20:47;97600.53;;;13.05;100.00
30618;BME280;17384;51.214;9.202;2023-08-06T04:23:15;97597.50;;;13.01;100.00
30618;BME280;17384;51.214;9.202;2023-08-06T04:25:40;97598.06;;;13.03;100.00
30618;BME280;17384;51.214;9.202;2023-08-06T04:28:07;97606.22;;;13.03;100.00
30618;BME280;17384;51.214;9.202;2023-08-06T04:30:32;97603.97;;;12.95;100.00
30618;BME280;17384;51.214;9.202;2023-08-06T04:32:58;97592.00;;;12.96;100.00
30618;BME280;17384;51.214;9.202;2023-08-06T04:35:23;97594.50;;;13.03;100.00
30618;BME280;17384;51.214;9.202;2023-08-06T04:37:49;97590.19;;;13.07;100.00
30618;BME280;17384;51.214;9.202;2023-08-06T04:40:14;97602.16;;;13.06;100.00
30618;BME280;17384;51.214;9.202;2023-08-06T04:42:40;97586.03;;;12.99;100.00
30618;BME280;17384;51.214;9.202;2023-08-06T04:45:06;97595.84;;;13.00;100.00
30618;BME280;17384;51.214;9.202;2023-08-06T04:47:31;97594.78;;;13.01;100.00
30618;BME280;17384;51.214;9.202;2023-08-06T04:49:57;97599.69;;;13.04;100.00
30618;BME280;17384;51.214;9.202;2023-08-06T04:52:22;97595.94;;;13.10;100.00
30618;BME280;17384;51.214;9.202;2023-08-06T04:54:48;97596.47;;;13.07;100.00
30618;BME280;17384;51.214;9.202;2023-08-06T04:57:13;97601.00;;;13.29;100.00
30618;BME280;17384;51.214;9.202;2023-08-06T04:59:39;97608.03;;;13.25;100.00
30618;BME280;17384;51.214;9.202;2023-08-06T05:02:04;97600.34;;;13.16;100.00
30618;BME280;17384;51.214;9.202;2023-08-06T05:04:30;97603.13;;;13.21;100.00
30618;BME280;17384;51.214;9.202;2023-08-06T05:06:55;97606.78;;;13.42;100.00
30618;BME280;17384;51.214;9.202;2023-08-06T05:09:21;97592.63;;;13.45;100.00
30618;BME280;17384;51.214;9.202;2023-08-06T05:11:47;97602.06;;;13.28;100.00
30618;BME280;17384;51.214;9.202;2023-08-06T05:14:12;97599.94;;;13.35;100.00
30618;BME280;17384;51.214;9.202;2023-08-06T05:16:38;97603.78;;;13.39;100.00
30618;BME280;17384;51.214;9.202;2023-08-06T05:19:04;97612.97;;;13.28;100.00
30618;BME280;17384;51.214;9.202;2023-08-06T05:21:29;97609.69;;;13.26;100.00
30618;BME280;17384;51.214;9.202;2023-08-06T05:23:54;97603.63;;;13.18;100.00
30618;BME280;17384;51.214;9.202;2023-08-06T05:26:20;97610.19;;;13.23;100.00
30618;BME280;17384;51.214;9.202;2023-08-06T05:28:45;97601.03;;;13.34;100.00
30618;BME280;17384;51.214;9.202;2023-08-06T05:31:11;97612.41;;;13.26;100.00
30618;BME280;17384;51.214;9.202;2023-08-06T05:33:37;97612.63;;;13.19;100.00
30618;BME280;17384;51.214;9.202;2023-08-06T05:36:02;97610.72;;;13.19;100.00
30618;BME280;17384;51.214;9.202;2023-08-06T05:38:29;97605.56;;;13.23;100.00
30618;BME280;17384;51.214;9.202;2023-08-06T05:40:55;97601.84;;;13.34;100.00
30618;BME280;17384;51.214;9.202;2023-08-06T05:43:21;97610.81;;;13.30;100.00
30618;BME280;17384;51.214;9.202;2023-08-06T05:45:49;97605.69;;;13.43;100.00
30618;BME280;17384;51.214;9.202;2023-08-06T05:48:15;97604.63;;;13.39;100.00
30618;BME280;17384;51.214;9.202;2023-08-06T05:50:40;97605.44;;;13.40;100.00
30618;BME280;17384;51.214;9.202;2023-08-06T05:53:06;97601.16;;;13.54;100.00
30618;BME280;17384;51.214;9.202;2023-08-06T05:55:31;97609.00;;;13.45;100.00
30618;BME280;17384;51.214;9.202;2023-08-06T05:57:58;97608.16;;;13.45;100.00
30618;BME280;17384;51.214;9.202;2023-08-06T06:00:24;97604.66;;;13.49;100.00
30618;BME280;17384;51.214;9.202;2023-08-06T06:02:49;97611.41;;;13.37;100.00
30618;BME280;17384;51.214;9.202;2023-08-06T06:05:15;97604.91;;;13.48;100.00
30618;BME280;17384;51.214;9.202;2023-08-06T06:07:40;97606.53;;;13.44;100.00
30618;BME280;17384;51.214;9.202;2023-08-06T06:10:06;97598.91;;;13.46;100.00
30618;BME280;17384;51.214;9.202;2023-08-06T06:12:32;97601.91;;;13.44;100.00
30618;BME280;17384;51.214;9.202;2023-08-06T06:14:58;97608.00;;;13.62;100.00
30618;BME280;17384;51.214;9.202;2023-08-06T06:17:23;97599.31;;;13.70;100.00
30618;BME280;17384;51.214;9.202;2023-08-06T06:19:48;97599.94;;;13.82;100.00
30618;BME280;17384;51.214;9.202;2023-08-06T06:22:14;97600.78;;;13.87;100.00
30618;BME280;17384;51.214;9.202;2023-08-06T06:24:39;97591.53;;;13.94;100.00
30618;BME280;17384;51.214;9.202;2023-08-06T06:27:05;97597.53;;;13.91;100.00
30618;BME280;17384;51.214;9.202;2023-08-06T06:29:31;97583.94;;;14.06;100.00
30618;BME280;17384;51.214;9.202;2023-08-06T06:31:56;97581.75;;;14.03;100.00
30618;BME280;17384;51.214;9.202;2023-08-06T06:34:21;97594.53;;;13.92;100.00
30618;BME280;17384;51.214;9.202;2023-08-06T06:36:47;97588.00;;;13.98;100.00
30618;BME280;17384;51.214;9.202;2023-08-06T06:39:13;97583.84;;;13.80;100.00
30618;BME280;17384;51.214;9.202;2023-08-06T06:41:38;97579.53;;;13.89;100.00
30618;BME280;17384;51.214;9.202;2023-08-06T06:44:05;97586.09;;;13.94;100.00
30618;BME280;17384;51.214;9.202;2023-08-06T06:46:30;97595.34;;;13.98;100.00
30618;BME280;17384;51.214;9.202;2023-08-06T06:48:55;97588.81;;;13.99;100.00
30618;BME280;17384;51.214;9.202;2023-08-06T06:51:21;97590.47;;;14.05;100.00
30618;BME280;17384;51.214;9.202;2023-08-06T06:53:46;97576.06;;;14.19;100.00
30618;BME280;17384;51.214;9.202;2023-08-06T06:56:12;97585.09;;;14.35;100.00
30618;BME280;17384;51.214;9.202;2023-08-06T06:58:37;97590.94;;;14.69;100.00
30618;BME280;17384;51.214;9.202;2023-08-06T07:01:04;97573.47;;;15.01;100.00
30618;BME280;17384;51.214;9.202;2023-08-06T07:03:30;97580.28;;;15.13;100.00
30618;BME280;17384;51.214;9.202;2023-08-06T07:05:58;97561.94;;;15.34;100.00
30618;BME280;17384;51.214;9.202;2023-08-06T07:08:24;97562.47;;;15.36;98.81
30618;BME280;17384;51.214;9.202;2023-08-06T07:10:50;97561.09;;;15.39;99.61
30618;BME280;17384;51.214;9.202;2023-08-06T07:13:15;97569.31;;;16.18;97.44
30618;BME280;17384;51.214;9.202;2023-08-06T07:15:44;97571.34;;;16.47;94.08
30618;BME280;17384;51.214;9.202;2023-08-06T07:18:13;97574.84;;;16.08;95.22
30618;BME280;17384;51.214;9.202;2023-08-06T07:20:39;97565.75;;;16.18;94.21
30618;BME280;17384;51.214;9.202;2023-08-06T07:23:05;97565.59;;;16.43;92.91
30618;BME280;17384;51.214;9.202;2023-08-06T07:25:31;97570.09;;;16.29;93.06
30618;BME280;17384;51.214;9.202;2023-08-06T07:27:59;97562.00;;;16.09;95.33
30618;BME280;17384;51.214;9.202;2023-08-06T07:30:31;97569.00;;;16.25;93.74
30618;BME280;17384;51.214;9.202;2023-08-06T07:32:56;97566.94;;;16.02;94.85
30618;BME280;17384;51.214;9.202;2023-08-06T07:35:22;97554.13;;;15.87;95.21
30618;BME280;17384;51.214;9.202;2023-08-06T07:37:48;97570.22;;;16.04;96.39
30618;BME280;17384;51.214;9.202;2023-08-06T07:40:13;97559.59;;;15.92;96.76
30618;BME280;17384;51.214;9.202;2023-08-06T07:42:39;97569.03;;;16.15;95.05
30618;BME280;17384;51.214;9.202;2023-08-06T07:45:05;97559.03;;;15.95;95.45
30618;BME280;17384;51.214;9.202;2023-08-06T07:47:30;97556.59;;;15.88;97.05
30618;BME280;17384;51.214;9.202;2023-08-06T07:49:56;97551.72;;;15.80;96.40
30618;BME280;17384;51.214;9.202;2023-08-06T07:52:21;97558.56;;;16.32;94.92
30618;BME280;17384;51.214;9.202;2023-08-06T07:54:47;97557.88;;;16.55;90.54
30618;BME280;17384;51.214;9.202;2023-08-06T07:57:12;97553.59;;;17.12;88.19
30618;BME280;17384;51.214;9.202;2023-08-06T07:59:39;97547.59;;;16.76;87.11
30618;BME280;17384;51.214;9.202;2023-08-06T08:02:05;97550.25;;;16.47;89.54
30618;BME280;17384;51.214;9.202;2023-08-06T08:04:30;97547.06;;;16.35;90.40
30618;BME280;17384;51.214;9.202;2023-08-06T08:06:56;97544.91;;;16.27;90.71
30618;BME280;17384;51.214;9.202;2023-08-06T08:09:21;97548.72;;;16.31;89.47
30618;BME280;17384;51.214;9.202;2023-08-06T08:11:47;97547.50;;;16.47;89.12
30618;BME280;17384;51.214;9.202;2023-08-06T08:14:12;97535.41;;;16.64;90.31
30618;BME280;17384;51.214;9.202;2023-08-06T08:16:38;97539.47;;;16.22;91.97
30618;BME280;17384;51.214;9.202;2023-08-06T08:19:03;97534.88;;;16.12;91.46
30618;BME280;17384;51.214;9.202;2023-08-06T08:21:29;97544.84;;;16.37;92.59
30618;BME280;17384;51.214;9.202;2023-08-06T08:23:54;97542.13;;;16.37;90.80
30618;BME280;17384;51.214;9.202;2023-08-06T08:26:20;97534.56;;;16.58;91.83
30618;BME280;17384;51.214;9.202;2023-08-06T08:28:45;97537.59;;;16.56;89.83
30618;BME280;17384;51.214;9.202;2023-08-06T08:31:11;97532.44;;;16.89;88.29
30618;BME280;17384;51.214;9.202;2023-08-06T08:33:39;97537.13;;;17.17;86.28
30618;BME280;17384;51.214;9.202;2023-08-06T08:36:05;97529.44;;;17.19;85.88
30618;BME280;17384;51.214;9.202;2023-08-06T08:38:30;97530.56;;;17.13;86.57
30618;BME280;17384;51.214;9.202;2023-08-06T08:40:56;97535.75;;;17.44;86.90
30618;BME280;17384;51.214;9.202;2023-08-06T08:43:22;97536.72;;;17.53;84.00
30618;BME280;17384;51.214;9.202;2023-08-06T08:45:52;97531.94;;;17.69;83.52
30618;BME280;17384;51.214;9.202;2023-08-06T08:48:20;97538.06;;;17.32;84.41
30618;BME280;17384;51.214;9.202;2023-08-06T08:50:48;97524.28;;;17.66;83.35
30618;BME280;17384;51.214;9.202;2023-08-06T08:53:16;97527.28;;;18.68;78.40
30618;BME280;17384;51.214;9.202;2023-08-06T08:55:43;97525.38;;;19.01;77.71
30618;BME280;17384;51.214;9.202;2023-08-06T08:58:08;97530.09;;;18.44;78.77
30618;BME280;17384;51.214;9.202;2023-08-06T09:00:34;97526.22;;;18.08;80.22
30618;BME280;17384;51.214;9.202;2023-08-06T09:03:00;97521.63;;;17.55;81.29
30618;BME280;17384;51.214;9.202;2023-08-06T09:05:29;97530.19;;;17.78;81.66
30618;BME280;17384;51.214;9.202;2023-08-06T09:08:02;97523.56;;;18.78;80.87
30618;BME280;17384;51.214;9.202;2023-08-06T09:10:28;97519.59;;;19.16;77.83
30618;BME280;17384;51.214;9.202;2023-08-06T09:12:55;97506.94;;;19.62;74.11
30618;BME280;17384;51.214;9.202;2023-08-06T09:15:24;97518.31;;;20.10;73.47
30618;BME280;17384;51.214;9.202;2023-08-06T09:17:50;97526.47;;;19.46;77.90
30618;BME280;17384;51.214;9.202;2023-08-06T09:20:17;97526.53;;;18.25;79.11
30618;BME280;17384;51.214;9.202;2023-08-06T09:22:42;97527.13;;;18.22;82.20
30618;BME280;17384;51.214;9.202;2023-08-06T09:25:09;97519.19;;;18.20;81.63
30618;BME280;17384;51.214;9.202;2023-08-06T09:27:37;97522.41;;;17.85;84.03
30618;BME280;17384;51.214;9.202;2023-08-06T09:30:04;97519.66;;;17.85;82.52
30618;BME280;17384;51.214;9.202;2023-08-06T09:32:47;97516.03;;;17.89;81.73
30618;BME280;17384;51.214;9.202;2023-08-06T09:35:22;97518.28;;;18.81;81.11
30618;BME280;17384;51.214;9.202;2023-08-06T09:37:48;97530.25;;;18.72;77.78
30618;BME280;17384;51.214;9.202;2023-08-06T09:40:31;97526.31;;;19.24;77.46
30618;BME280;17384;51.214;9.202;2023-08-06T09:42:57;97522.00;;;19.04;78.21
30618;BME280;17384;51.214;9.202;2023-08-06T09:45:28;97517.94;;;19.15;76.15
30618;BME280;17384;51.214;9.202;2023-08-06T09:47:55;97524.00;;;19.31;78.89
30618;BME280;17384;51.214;9.202;2023-08-06T09:50:21;97517.50;;;20.09;75.07
30618;BME280;17384;51.214;9.202;2023-08-06T09:52:47;97514.31;;;20.66;71.24
30618;BME280;17384;51.214;9.202;2023-08-06T09:55:15;97518.75;;;21.20;69.87
30618;BME280;17384;51.214;9.202;2023-08-06T09:57:42;97512.69;;;21.32;67.42
30618;BME280;17384;51.214;9.202;2023-08-06T10:00:10;97516.13;;;20.34;67.69
30618;BME280;17384;51.214;9.202;2023-08-06T10:02:40;97516.25;;;21.32;67.35
30618;BME280;17384;51.214;9.202;2023-08-06T10:05:09;97511.72;;;21.76;65.52
30618;BME280;17384;51.214;9.202;2023-08-06T10:07:35;97514.94;;;21.30;65.41
30618;BME280;17384;51.214;9.202;2023-08-06T10:10:02;97509.97;;;21.18;66.10
30618;BME280;17384;51.214;9.202;2023-08-06T10:12:34;97508.13;;;22.06;65.90
30618;BME280;17384;51.214;9.202;2023-08-06T10:15:03;97497.31;;;21.17;64.79
30618;BME280;17384;51.214;9.202;2023-08-06T10:17:31;97492.69;;;20.59;65.46
30618;BME280;17384;51.214;9.202;2023-08-06T10:19:59;97492.19;;;22.03;62.15
30618;BME280;17384;51.214;9.202;2023-08-06T10:22:25;97492.41;;;22.93;61.76
30618;BME280;17384;51.214;9.202;2023-08-06T10:24:53;97488.59;;;23.23;60.46
30618;BME280;17384;51.214;9.202;2023-08-06T10:27:32;97493.91;;;23.46;57.99
30618;BME280;17384;51.214;9.202;2023-08-06T10:30:23;97481.56;;;23.35;57.97
30618;BME280;17384;51.214;9.202;2023-08-06T10:32:50;97489.47;;;22.29;59.09
30618;BME280;17384;51.214;9.202;2023-08-06T10:35:40;97467.69;;;22.27;60.44
30618;BME280;17384;51.214;9.202;2023-08-06T10:38:15;97473.25;;;21.40;61.44
30618;BME280;17384;51.214;9.202;2023-08-06T10:40:47;97480.72;;;21.31;62.88
30618;BME280;17384;51.214;9.202;2023-08-06T10:43:27;97470.03;;;21.15;63.64
30618;BME280;17384;51.214;9.202;2023-08-06T10:45:54;97468.97;;;20.72;64.54
30618;BME280;17384;51.214;9.202;2023-08-06T10:48:36;97464.59;;;20.48;66.10
30618;BME280;17384;51.214;9.202;2023-08-06T10:51:02;97463.97;;;20.74;66.32
30618;BME280;17384;51.214;9.202;2023-08-06T10:53:28;97462.66;;;20.71;67.12
30618;BME280;17384;51.214;9.202;2023-08-06T10:55:54;97467.28;;;20.62;67.18
30618;BME280;17384;51.214;9.202;2023-08-06T11:00:47;97457.16;;;21.24;66.46
30618;BME280;17384;51.214;9.202;2023-08-06T11:03:14;97456.84;;;21.26;65.99
30618;BME280;17384;51.214;9.202;2023-08-06T11:05:39;97446.53;;;22.57;63.61
30618;BME280;17384;51.214;9.202;2023-08-06T11:08:05;97445.91;;;22.60;62.06
30618;BME280;17384;51.214;9.202;2023-08-06T11:10:33;97437.94;;;22.24;63.05
30618;BME280;17384;51.214;9.202;2023-08-06T11:13:03;97442.31;;;22.17;63.44
30618;BME280;17384;51.214;9.202;2023-08-06T11:15:30;97437.84;;;21.90;61.53
30618;BME280;17384;51.214;9.202;2023-08-06T11:17:56;97445.19;;;21.94;62.41
30618;BME280;17384;51.214;9.202;2023-08-06T11:20:21;97438.03;;;21.93;63.30
30618;BME280;17384;51.214;9.202;2023-08-06T11:22:47;97446.38;;;21.54;64.87
30618;BME280;17384;51.214;9.202;2023-08-06T11:25:13;97441.31;;;20.85;65.92
30618;BME280;17384;51.214;9.202;2023-08-06T11:27:38;97442.16;;;20.41;66.90
30618;BME280;17384;51.214;9.202;2023-08-06T11:30:04;97438.69;;;20.49;67.04
30618;BME280;17384;51.214;9.202;2023-08-06T11:32:30;97440.63;;;20.35;67.23
30618;BME280;17384;51.214;9.202;2023-08-06T11:34:56;97437.72;;;19.82;69.01
30618;BME280;17384;51.214;9.202;2023-08-06T11:37:22;97434.16;;;19.26;70.37
30618;BME280;17384;51.214;9.202;2023-08-06T11:39:49;97436.00;;;19.45;71.94
30618;BME280;17384;51.214;9.202;2023-08-06T11:42:15;97444.97;;;19.37;71.41
30618;BME280;17384;51.214;9.202;2023-08-06T11:44:41;97435.69;;;19.33;73.75
30618;BME280;17384;51.214;9.202;2023-08-06T11:47:16;97432.22;;;19.27;75.24
30618;BME280;17384;51.214;9.202;2023-08-06T11:49:50;97438.97;;;19.35;75.30
30618;BME280;17384;51.214;9.202;2023-08-06T11:52:20;97445.59;;;19.34;77.35
30618;BME280;17384;51.214;9.202;2023-08-06T11:57:24;97441.91;;;19.24;78.45
30618;BME280;17384;51.214;9.202;2023-08-06T11:59:50;97435.06;;;19.08;80.49
30618;BME280;17384;51.214;9.202;2023-08-06T12:02:15;97433.75;;;19.06;80.25
30618;BME280;17384;51.214;9.202;2023-08-06T12:05:04;97424.97;;;19.17;78.60
30618;BME280;17384;51.214;9.202;2023-08-06T12:07:36;97430.91;;;19.11;79.57
30618;BME280;17384;51.214;9.202;2023-08-06T12:10:02;97431.38;;;18.53;81.38
30618;BME280;17384;51.214;9.202;2023-08-06T12:12:28;97440.25;;;18.31;85.78
30618;BME280;17384;51.214;9.202;2023-08-06T12:14:54;97429.66;;;18.38;85.39
30618;BME280;17384;51.214;9.202;2023-08-06T12:17:20;97432.41;;;18.57;82.79
30618;BME280;17384;51.214;9.202;2023-08-06T12:19:46;97425.97;;;18.94;83.85
30618;BME280;17384;51.214;9.202;2023-08-06T12:22:14;97412.97;;;19.27;80.92
30618;BME280;17384;51.214;9.202;2023-08-06T12:24:41;97418.69;;;19.58;79.23
30618;BME280;17384;51.214;9.202;2023-08-06T12:27:07;97422.06;;;20.05;76.48
30618;BME280;17384;51.214;9.202;2023-08-06T12:29:32;97421.31;;;20.71;77.04
30618;BME280;17384;51.214;9.202;2023-08-06T12:31:58;97425.09;;;21.15;75.05
30618;BME280;17384;51.214;9.202;2023-08-06T12:34:23;97434.00;;;21.43;75.03
30618;BME280;17384;51.214;9.202;2023-08-06T12:36:49;97440.19;;;21.17;73.79
30618;BME280;17384;51.214;9.202;2023-08-06T12:39:14;97447.41;;;20.96;71.39
30618;BME280;17384;51.214;9.202;2023-08-06T12:41:40;97447.28;;;21.01;71.23
30618;BME280;17384;51.214;9.202;2023-08-06T12:44:05;97458.94;;;20.98;71.68
30618;BME280;17384;51.214;9.202;2023-08-06T12:46:31;97455.56;;;20.56;69.23
30618;BME280;17384;51.214;9.202;2023-08-06T12:48:56;97461.25;;;20.38;71.15
30618;BME280;17384;51.214;9.202;2023-08-06T12:51:23;97459.31;;;20.38;72.65
30618;BME280;17384;51.214;9.202;2023-08-06T12:53:49;97443.69;;;20.47;72.31
30618;BME280;17384;51.214;9.202;2023-08-06T12:56:15;97449.44;;;20.59;72.13
30618;BME280;17384;51.214;9.202;2023-08-06T12:58:41;97452.81;;;20.56;74.83
30618;BME280;17384;51.214;9.202;2023-08-06T13:01:07;97460.44;;;20.37;74.56